Погода METAR - Красноярск

Код аэропорта ICAO:
Кемерово, Абакан, Красноярск, Новосибирск
Код METAR: UNKL 230330Z 22002MPS 180V260 CAVOK 00/M08 Q1023 WS R29 R29/CLRD65 NOSIG RMK QFE741
TAF UNKL 230200Z 2303/2403 22005G12MPS 9999 SCT040 
     BECMG 2318/2320 SCT015CB 
     TEMPO 2321/2403 3100 -SHSN
       

Погода - Сейчас

Время: 2019-10-23 10:30, местное
Направление ветра: Юго-запад (220°)
Скорость ветра: 2 м/с
Видимость:
Температура: 0°C
Точка росы: -8°C
Атмосферное давление: 1023 гПа

Архив погоды

Ошибка.Сообщения в формате TAF пока не поддерживаются: TAF UNKL 141952Z 1421/1521 20003G10MPS 9999 SCT040 TEMPO 1421/1502 22008G14MPS BECMG 1502/1504 SCT020CB TEMPO 1504/1521 22008G14MPS 4000 -SHRA BKN015CB
Ошибка.Сообщения в формате TAF пока не поддерживаются: TAF UNKL 140158Z 1403/1503 21003G10MPS 9999 SCT030 BECMG 1413/1415 SCT020CB TEMPO 1418/1503 4000 -SHRA
Ошибка.Сообщения в формате TAF пока не поддерживаются: TAF UNKL 111655Z 1118/1218 11003MPS 3100 BR SCT013 FM120300 10003G10MPS 9999 SCT040
Ошибка.Сообщения в формате TAF пока не поддерживаются: TAF UNKL 111050Z 1112/1212 10003G10MPS CAVOK FM112000 10003MPS 3100 BR SCT040 FM120300 10003G10MPS CAVOK
Время, местное Направление Скорость, м/с Температура, °C Точка росы, °C Давление, гПа
2019-10-23 10:30 ЮЗ (220°) 2 0 -8 1023
2019-10-23 08:30 ЮЮЗ (200°) 4 -2 -9 1023
2019-10-20 13:30 В (100°) 2 -3 -8 1022
2019-10-19 19:30 ЗЮЗ (250°) 2 -3 -3 1017
2019-10-18 10:30 З (270°) 4 3 1 1012
0
0
0
0
2019-10-10 18:00 ВСВ (60°) 3 1 -11 1029
2019-10-10 00:30 Штиль 0 -5 -8 1028
2019-10-09 05:30 СЗ (300°) 2 -1 -4 1026
2019-10-05 05:00 ЗЮЗ (260°) 6 11 -2 1017
2019-10-01 03:00 З (270°) 4 2 0 1021
2019-09-29 04:30 ЗЮЗ (240°) 3 4 1 1009
2019-09-23 06:00 ЮВ (140°) 3 4 2 1010
2019-09-22 14:30 Ю (170°) 2 17 -2 1022
2019-09-22 06:00 Штиль 0 1 0 1024
2019-09-20 15:30 ЮЮЗ (200°) 5 24 9 1008
2019-09-19 03:30 Штиль 0 6 6 1018
2019-09-18 10:00 ЗЮЗ (250°) 6 12 9 1016
2019-09-14 01:30 З (280°) 4 3 -1 1014
2019-09-10 15:30 ЗЮЗ (260°) 5 16 10 1010
2019-09-10 14:00 ЗЮЗ (250°) 3 15 11 1010
2019-09-08 22:30 Штиль 0 7 6 1017
2019-09-08 16:00 ВЮВ (110°) 5 18 6 1017
2019-09-07 21:30 Штиль 0 6 5 1020
2019-09-05 16:00 З (280°) 5 18 6 1015
2019-09-05 05:30 Штиль 0 3 3 1016
2019-09-04 14:30 ЗЮЗ (250°) 5 17 6 1012
2019-09-03 09:00 ЮВ (120°) 1 12 12 1012
2019-09-03 04:00 СВ (30°) 2 10 10 1012
2019-09-02 20:30 ЗЮЗ (250°) 2 12 12 1013
2019-08-31 22:00 Штиль 0 14 13 1008
2019-08-30 00:30 Переменный 1 10 9 1013
2019-08-29 20:30 ВЮВ (110°) 2 16 10 1014
2019-08-28 09:00 З (270°) 6 18 13 1013
2019-08-26 23:00 Штиль 0 10 9 1018
2019-08-26 20:00 Штиль 0 15 12 1018
2019-08-25 11:30 ЮЮЗ (200°) 3 18 14 1014
2019-08-24 09:30 Ю (190°) 3 14 11 1007
2019-08-23 20:00 З (280°) 4 14 13 1006
2019-08-22 09:00 Переменный 1 14 10 1013
2019-08-21 05:00 З (270°) 3 13 12 1014
2019-08-20 12:00 ЮВ (140°) 3 19 13 1014
2019-08-19 00:30 ЗСЗ (290°) 2 11 10 1014
2019-08-18 12:00 В (100°) 3 21 12 1013
2019-08-17 18:00 ССВ (20°) 3 23 12 1012